Webcam & Weather

This webcam image will automatically refresh every 15 seconds.


METAR and TAF for EGLL Heathrow (12 Nautical Miles East of White Waltham)

METAR FOR EGLL (Issued: Sat, August 27th 2016 8:20 PM UTC):
EGLL 272020Z AUTO 21008KT 180V250 9000 NCD 21/18 Q1012

TAF FOR EGLL (Issued: Sat, August 27th 2016 6:15 PM UTC):
TAF EGLL 271705Z 2718/2824 08010KT 9999 SCT030 BECMG 2718/2720 20005KT PROB40 TEMPO 2721/2803 6000 PROB30 TEMPO 2800/2806 BKN012 PROB40 TEMPO 2810/2818 7000 SHRA

Play 24 hour timelapse | Play 30 day timelapse

Comments are closed.